createdAt,value
2019-04-21T00:02:20.027Z,91.60
2019-04-21T00:04:56.886Z,91.70
2019-04-21T00:07:31.568Z,91.80
2019-04-21T00:10:14.437Z,91.90
2019-04-21T00:12:35.857Z,91.90
2019-04-21T00:15:03.547Z,91.80
2019-04-21T00:17:26.551Z,91.80
2019-04-21T00:20:09.216Z,91.70
2019-04-21T00:22:44.037Z,91.40
2019-04-21T00:25:36.217Z,91.50
2019-04-21T00:28:21.948Z,91.70
2019-04-21T00:30:50.564Z,91.60
2019-04-21T00:33:06.879Z,91.50
2019-04-21T00:35:41.477Z,91.40
2019-04-21T00:38:28.513Z,91.50
2019-04-21T00:41:00.410Z,91.20
2019-04-21T00:43:26.072Z,91.20
2019-04-21T00:45:55.054Z,91.10
2019-04-21T00:48:34.429Z,91.00
2019-04-21T00:54:07.073Z,90.90
2019-04-21T00:56:28.864Z,90.90
2019-04-21T00:59:07.121Z,90.80
2019-04-21T01:01:31.248Z,90.90
2019-04-21T01:04:09.998Z,90.80
2019-04-21T01:06:43.465Z,91.00
2019-04-21T01:09:09.526Z,90.60
2019-04-21T01:11:47.808Z,90.50
2019-04-21T01:14:28.038Z,90.30
2019-04-21T01:16:56.182Z,90.20
2019-04-21T01:19:16.677Z,90.20
2019-04-21T01:21:32.516Z,90.20
2019-04-21T01:24:11.800Z,90.20
2019-04-21T01:26:48.454Z,90.40
2019-04-21T01:29:29.010Z,90.20
2019-04-21T01:32:16.081Z,90.20
2019-04-21T01:34:39.357Z,90.00
2019-04-21T01:37:05.697Z,89.30
2019-04-21T01:39:58.504Z,89.30
2019-04-21T01:42:18.852Z,89.70
2019-04-21T01:44:52.313Z,89.00
2019-04-21T01:47:17.526Z,88.70
2019-04-21T01:49:47.247Z,89.00
2019-04-21T01:52:38.666Z,89.00
2019-04-21T01:55:25.162Z,89.00
2019-04-21T02:00:57.182Z,88.70
2019-04-21T02:08:41.571Z,86.90
2019-04-21T02:11:18.870Z,87.30
2019-04-21T02:13:53.513Z,87.00
2019-04-21T02:16:25.172Z,86.70
2019-04-21T02:18:52.601Z,86.20
2019-04-21T02:21:21.786Z,85.10
2019-04-21T02:24:01.691Z,85.30
2019-04-21T02:26:37.502Z,86.50
2019-04-21T02:29:08.638Z,86.00
2019-04-21T02:34:32.276Z,84.10
2019-04-21T02:37:05.209Z,84.40
2019-04-21T02:39:21.254Z,85.00
2019-04-21T02:41:55.873Z,84.70
2019-04-21T02:44:28.033Z,85.50
2019-04-21T02:47:21.196Z,85.80
2019-04-21T02:52:18.243Z,84.40
2019-04-21T03:00:10.032Z,83.60
2019-04-21T03:02:34.509Z,83.70
2019-04-21T03:05:21.076Z,84.40
2019-04-21T03:07:34.455Z,84.30
2019-04-21T03:10:12.541Z,83.40
2019-04-21T03:12:38.109Z,82.50
2019-04-21T03:20:19.562Z,80.70
2019-04-21T03:22:53.145Z,80.00
2019-04-21T03:25:33.898Z,79.50
2019-04-21T03:30:45.707Z,79.40
2019-04-21T03:38:03.938Z,79.20
2019-04-21T03:40:32.228Z,78.20
2019-04-21T03:45:49.111Z,76.50
2019-04-21T03:48:17.290Z,76.10
2019-04-21T03:50:50.875Z,77.40
2019-04-21T03:53:18.580Z,76.80
2019-04-21T03:55:58.694Z,76.80
2019-04-21T04:01:05.446Z,76.00
2019-04-21T04:04:00.788Z,75.60
2019-04-21T04:06:20.539Z,75.30
2019-04-21T04:11:39.769Z,72.80
2019-04-21T04:14:26.644Z,72.40
2019-04-21T04:17:06.139Z,73.50
2019-04-21T04:24:50.234Z,71.70
2019-04-21T04:27:20.949Z,69.80
2019-04-21T04:29:42.301Z,69.30
2019-04-21T04:32:16.949Z,68.40
2019-04-21T04:40:19.695Z,68.00
2019-04-21T04:53:34.673Z,67.30
2019-04-21T04:58:55.500Z,67.00
2019-04-21T05:01:14.167Z,67.60
2019-04-21T05:11:50.491Z,67.20
2019-04-21T05:16:48.411Z,66.70
2019-04-21T05:19:14.900Z,66.80
2019-04-21T05:24:10.776Z,66.40
2019-04-21T05:26:34.443Z,66.00
2019-04-21T05:29:05.330Z,65.50
2019-04-21T05:31:50.962Z,65.40
2019-04-21T05:34:21.944Z,64.50
2019-04-21T05:37:03.913Z,65.00
2019-04-21T05:39:36.215Z,64.80
2019-04-21T05:42:00.752Z,65.00
2019-04-21T05:47:35.505Z,64.80
2019-04-21T05:50:19.126Z,63.80
2019-04-21T05:52:53.552Z,61.60
2019-04-21T05:55:57.112Z,61.60
2019-04-21T05:58:31.595Z,60.00
2019-04-21T06:01:33.339Z,60.60
2019-04-21T06:04:05.554Z,59.40
2019-04-21T06:06:35.497Z,57.70
2019-04-21T06:09:15.748Z,57.10
2019-04-21T06:11:45.043Z,55.60
2019-04-21T06:14:14.438Z,56.60
2019-04-21T06:16:58.150Z,55.90
2019-04-21T06:19:31.158Z,53.90
2019-04-21T06:21:56.920Z,57.00
2019-04-21T06:24:32.608Z,58.10
2019-04-21T06:29:43.723Z,57.40
2019-04-21T06:32:46.142Z,57.40
2019-04-21T06:34:59.120Z,57.10
2019-04-21T06:42:48.675Z,59.10
2019-04-21T06:45:27.370Z,58.00
2019-04-21T06:48:04.657Z,57.40
2019-04-21T06:53:22.958Z,58.70
2019-04-21T06:55:51.667Z,59.40
2019-04-21T06:58:27.839Z,59.70
2019-04-21T07:00:57.669Z,59.30
2019-04-21T07:03:34.697Z,57.10
2019-04-21T07:06:09.464Z,56.80
2019-04-21T07:08:57.692Z,58.30
2019-04-21T07:11:18.741Z,60.30
2019-04-21T07:14:16.163Z,59.50
2019-04-21T07:16:33.423Z,61.40
2019-04-21T07:19:10.064Z,56.60
2019-04-21T07:21:43.402Z,59.80
2019-04-21T07:24:14.498Z,60.90
2019-04-21T07:26:44.747Z,60.90
2019-04-21T07:29:15.796Z,61.40
2019-04-21T07:31:54.157Z,59.80
2019-04-21T07:34:25.142Z,60.00
2019-04-21T07:39:27.148Z,60.50
2019-04-21T07:41:52.275Z,60.30
2019-04-21T07:44:29.119Z,59.60
2019-04-21T07:46:58.535Z,59.00
2019-04-21T07:49:59.011Z,58.80
2019-04-21T07:52:36.334Z,58.60
2019-04-21T07:57:36.649Z,57.20
2019-04-21T08:00:20.696Z,57.40
2019-04-21T08:02:40.420Z,58.30
2019-04-21T08:10:15.595Z,58.90
2019-04-21T08:12:48.083Z,58.80
2019-04-21T08:17:58.181Z,58.00
2019-04-21T08:20:24.060Z,58.20
2019-04-21T08:22:59.560Z,58.40
2019-04-21T08:25:58.969Z,59.00
2019-04-21T08:28:26.412Z,59.30
2019-04-21T08:30:55.489Z,58.50
2019-04-21T08:33:37.181Z,57.70
2019-04-21T08:36:12.974Z,57.20
2019-04-21T08:38:35.844Z,57.00
2019-04-21T08:46:09.709Z,57.00
2019-04-21T08:48:46.575Z,58.10
2019-04-21T08:53:47.553Z,57.30
2019-04-21T08:56:21.351Z,58.00
2019-04-21T09:01:43.034Z,57.10
2019-04-21T09:04:21.175Z,58.00
2019-04-21T09:07:05.325Z,56.30
2019-04-21T09:09:57.187Z,56.30
2019-04-21T09:12:14.998Z,57.40
2019-04-21T09:14:51.277Z,57.60
2019-04-21T09:17:28.556Z,57.80
2019-04-21T09:20:12.650Z,57.50
2019-04-21T09:22:35.851Z,56.70
2019-04-21T09:25:09.071Z,57.20
2019-04-21T09:27:39.242Z,57.30
2019-04-21T09:30:01.259Z,57.00
2019-04-21T09:32:32.862Z,57.40
2019-04-21T09:35:09.805Z,57.50
2019-04-21T09:44:45.459Z,57.70
2019-04-21T09:47:18.999Z,57.20
2019-04-21T09:49:49.432Z,57.50
2019-04-21T09:52:36.124Z,58.10
2019-04-21T09:55:07.275Z,58.30
2019-04-21T09:57:41.456Z,59.00
2019-04-21T10:00:10.793Z,58.00
2019-04-21T10:02:42.843Z,58.80
2019-04-21T10:05:09.947Z,59.30
2019-04-21T10:07:42.906Z,59.60
2019-04-21T10:10:13.245Z,59.20
2019-04-21T10:12:45.392Z,59.30
2019-04-21T10:15:16.567Z,59.30
2019-04-21T10:17:52.301Z,59.30
2019-04-21T10:20:24.404Z,59.80
2019-04-21T10:22:55.625Z,59.90
2019-04-21T10:25:26.551Z,60.00
2019-04-21T10:27:57.356Z,60.20
2019-04-21T10:30:28.725Z,61.20
2019-04-21T10:33:00.606Z,61.60
2019-04-21T10:35:32.684Z,62.30
2019-04-21T10:38:16.963Z,63.00
2019-04-21T10:40:37.291Z,62.70
2019-04-21T10:43:10.780Z,62.50
2019-04-21T10:45:40.970Z,62.30
2019-04-21T10:48:12.812Z,62.10
2019-04-21T10:50:43.453Z,61.80
2019-04-21T10:53:16.593Z,61.60
2019-04-21T10:56:00.393Z,61.10
2019-04-21T10:58:24.438Z,61.30
2019-04-21T11:00:57.838Z,62.30
2019-04-21T11:03:33.174Z,61.70
2019-04-21T11:06:04.488Z,62.50
2019-04-21T11:08:44.019Z,63.20
2019-04-21T11:11:12.249Z,63.60
2019-04-21T11:13:44.379Z,62.80
2019-04-21T11:16:17.147Z,62.90
2019-04-21T11:18:48.521Z,63.30
2019-04-21T11:21:20.749Z,63.20
2019-04-21T11:23:52.201Z,61.40
2019-04-21T11:26:24.175Z,61.20
2019-04-21T11:28:56.721Z,61.20
2019-04-21T11:31:27.540Z,60.90
2019-04-21T11:33:58.289Z,61.00
2019-04-21T11:36:29.468Z,61.50
2019-04-21T11:39:21.023Z,61.60
2019-04-21T11:41:41.552Z,62.50
2019-04-21T11:44:12.523Z,63.00
2019-04-21T11:46:44.453Z,63.90
2019-04-21T11:49:15.812Z,64.60
2019-04-21T11:51:46.977Z,65.50
2019-04-21T11:54:19.055Z,66.00
2019-04-21T11:56:50.663Z,66.40
2019-04-21T11:59:21.759Z,67.10
2019-04-21T12:01:53.943Z,67.70
2019-04-21T12:04:25.445Z,68.30
2019-04-21T12:06:57.724Z,68.50
2019-04-21T12:09:29.309Z,68.70
2019-04-21T12:12:01.126Z,69.70
2019-04-21T12:14:32.121Z,70.30
2019-04-21T12:17:02.851Z,70.70
2019-04-21T12:19:34.725Z,70.90
2019-04-21T12:22:15.644Z,71.10
2019-04-21T12:24:39.639Z,71.20
2019-04-21T12:27:11.912Z,71.10
2019-04-21T12:29:44.044Z,71.30
2019-04-21T12:32:20.239Z,71.20
2019-04-21T12:34:52.169Z,71.10
2019-04-21T12:37:24.627Z,71.20
2019-04-21T12:39:56.746Z,71.20
2019-04-21T12:42:27.581Z,71.50
2019-04-21T12:44:59.345Z,71.60
2019-04-21T12:47:30.220Z,71.50
2019-04-21T12:50:02.602Z,71.70
2019-04-21T12:52:34.146Z,71.80
2019-04-21T12:55:05.806Z,71.30
2019-04-21T12:57:37.213Z,71.50
2019-04-21T13:00:11.269Z,71.60
2019-04-21T13:02:43.429Z,71.60
2019-04-21T13:05:15.709Z,71.50
2019-04-21T13:08:07.233Z,71.70
2019-04-21T13:10:38.298Z,71.80
2019-04-21T13:13:10.068Z,71.40
2019-04-21T13:15:41.134Z,71.10
2019-04-21T13:18:12.389Z,70.50
2019-04-21T13:20:44.364Z,70.20
2019-04-21T13:25:52.249Z,70.00
2019-04-21T13:28:30.318Z,70.30
2019-04-21T13:31:02.314Z,70.30
2019-04-21T13:33:36.035Z,70.20
2019-04-21T13:36:07.627Z,70.30
2019-04-21T13:38:57.214Z,71.30
2019-04-21T13:41:35.155Z,70.60
2019-04-21T13:43:52.949Z,70.40
2019-04-21T13:46:24.933Z,70.50
2019-04-21T13:48:55.950Z,70.80
2019-04-21T13:51:27.467Z,70.80
2019-04-21T13:53:59.457Z,70.40
2019-04-21T13:56:32.060Z,70.50
2019-04-21T13:59:02.688Z,70.60
2019-04-21T14:01:34.013Z,71.00
2019-04-21T14:04:05.316Z,70.30
2019-04-21T14:06:36.369Z,71.00
2019-04-21T14:09:09.606Z,71.30
2019-04-21T14:11:41.132Z,71.70
2019-04-21T14:14:12.450Z,72.00
2019-04-21T14:16:44.152Z,72.40
2019-04-21T14:19:15.593Z,72.60
2019-04-21T14:21:49.476Z,73.00
2019-04-21T14:24:19.119Z,73.20
2019-04-21T14:26:50.214Z,73.40
2019-04-21T14:29:21.756Z,74.20
2019-04-21T14:31:53.251Z,74.30
2019-04-21T14:34:24.177Z,74.60
2019-04-21T14:36:55.025Z,76.00
2019-04-21T14:39:26.408Z,75.40
2019-04-21T14:41:58.122Z,75.50
2019-04-21T14:44:29.167Z,75.70
2019-04-21T14:47:03.017Z,75.70
2019-04-21T14:49:39.425Z,76.10
2019-04-21T14:52:25.276Z,76.30
2019-04-21T14:54:58.551Z,76.20
2019-04-21T14:57:29.620Z,76.40
2019-04-21T15:00:02.898Z,76.10
2019-04-21T15:02:34.016Z,76.30
2019-04-21T15:05:09.533Z,76.20
2019-04-21T15:07:41.376Z,75.80
2019-04-21T15:10:33.461Z,75.70
2019-04-21T15:13:05.705Z,75.80
2019-04-21T15:15:38.047Z,75.70
2019-04-21T15:18:10.414Z,75.10
2019-04-21T15:20:42.447Z,75.00
2019-04-21T15:23:14.470Z,75.10
2019-04-21T15:25:46.051Z,75.10
2019-04-21T15:28:17.834Z,75.30
2019-04-21T15:30:50.286Z,75.40
2019-04-21T15:33:22.301Z,75.70
2019-04-21T15:35:53.208Z,75.60
2019-04-21T15:38:25.420Z,75.80
2019-04-21T15:41:00.742Z,76.00
2019-04-21T15:43:28.855Z,76.10
2019-04-21T15:46:00.651Z,76.10
2019-04-21T15:48:52.931Z,76.10
2019-04-21T15:51:23.976Z,76.40
2019-04-21T15:53:55.634Z,76.70
2019-04-21T15:56:28.883Z,76.80
2019-04-21T15:59:16.642Z,77.10
2019-04-21T16:01:50.653Z,77.40
2019-04-21T16:04:22.913Z,77.30
2019-04-21T16:06:55.365Z,77.70
2019-04-21T16:09:28.678Z,77.60
2019-04-21T16:11:59.882Z,77.80
2019-04-21T16:14:30.737Z,77.90
2019-04-21T16:17:01.513Z,78.10
2019-04-21T16:19:33.321Z,78.40
2019-04-21T16:22:06.426Z,78.50
2019-04-21T16:24:38.142Z,79.80
2019-04-21T16:27:11.096Z,79.10
2019-04-21T16:29:41.718Z,79.20
2019-04-21T16:32:14.678Z,79.40
2019-04-21T16:34:50.989Z,79.60
2019-04-21T16:37:17.447Z,79.90
2019-04-21T16:39:49.416Z,80.20
2019-04-21T16:42:20.482Z,80.40
2019-04-21T16:44:52.676Z,80.40
2019-04-21T16:47:26.108Z,80.60
2019-04-21T16:49:57.981Z,80.30
2019-04-21T16:52:47.710Z,80.40
2019-04-21T16:55:24.723Z,80.40
2019-04-21T16:58:09.221Z,80.80
2019-04-21T17:00:41.847Z,80.10
2019-04-21T17:03:04.372Z,80.10
2019-04-21T17:05:36.263Z,80.80
2019-04-21T17:08:08.113Z,81.30
2019-04-21T17:10:40.331Z,81.10
2019-04-21T17:13:32.053Z,81.50
2019-04-21T17:16:32.736Z,81.50
2019-04-21T17:18:50.203Z,82.00
2019-04-21T17:21:08.759Z,82.10
2019-04-21T17:23:40.709Z,82.10
2019-04-21T17:26:13.119Z,82.50
2019-04-21T17:28:44.986Z,82.70
2019-04-21T17:31:16.184Z,83.10
2019-04-21T17:33:48.432Z,83.20
2019-04-21T17:36:21.011Z,83.40
2019-04-21T17:38:52.277Z,83.70
2019-04-21T17:41:30.622Z,84.00
2019-04-21T17:43:56.181Z,84.00
2019-04-21T17:46:36.669Z,84.10
2019-04-21T17:48:59.162Z,84.50
2019-04-21T17:51:31.976Z,84.50
2019-04-21T17:54:13.925Z,84.80
2019-04-21T17:56:59.631Z,85.00
2019-04-21T17:59:41.516Z,85.40
2019-04-21T18:02:02.306Z,84.50
2019-04-21T18:04:33.439Z,84.60
2019-04-21T18:07:27.587Z,84.40
2019-04-21T18:12:31.295Z,84.90
2019-04-21T18:14:59.153Z,85.20
2019-04-21T18:17:20.606Z,85.30
2019-04-21T18:19:54.922Z,85.50
2019-04-21T18:22:46.924Z,85.50
2019-04-21T18:25:36.164Z,85.50
2019-04-21T18:27:58.720Z,86.00
2019-04-21T18:30:48.749Z,86.10
2019-04-21T18:33:25.069Z,86.20
2019-04-21T18:36:00.631Z,86.70
2019-04-21T18:38:54.810Z,87.00
2019-04-21T18:41:07.610Z,86.80
2019-04-21T18:44:19.089Z,86.90
2019-04-21T18:46:38.637Z,87.00
2019-04-21T18:49:00.612Z,87.20
2019-04-21T18:51:58.743Z,87.20
2019-04-21T18:54:37.743Z,87.00
2019-04-21T18:56:57.618Z,87.30
2019-04-21T18:59:31.079Z,87.40
2019-04-21T19:02:02.189Z,87.70
2019-04-21T19:04:30.075Z,87.70
2019-04-21T19:07:12.980Z,87.40
2019-04-21T19:10:10.032Z,86.80
2019-04-21T19:12:35.150Z,87.00
2019-04-21T19:14:56.290Z,86.80
2019-04-21T19:22:32.918Z,87.20
2019-04-21T19:25:08.383Z,87.00
2019-04-21T19:27:31.049Z,86.70
2019-04-21T19:30:17.687Z,86.80
2019-04-21T19:32:41.335Z,86.80
2019-04-21T19:34:59.631Z,87.00
2019-04-21T19:37:29.822Z,87.20
2019-04-21T19:40:12.161Z,87.50
2019-04-21T19:42:42.086Z,87.70
2019-04-21T19:45:17.644Z,88.00
2019-04-21T19:47:57.753Z,87.80
2019-04-21T19:50:33.533Z,88.00
2019-04-21T19:52:52.006Z,88.20
2019-04-21T19:55:14.253Z,88.20
2019-04-21T19:57:45.112Z,88.40
2019-04-21T20:00:17.528Z,88.70
2019-04-21T20:02:50.294Z,88.80
2019-04-21T20:05:32.704Z,88.70
2019-04-21T20:08:11.306Z,88.90
2019-04-21T20:10:44.410Z,88.90
2019-04-21T20:13:25.968Z,88.80
2019-04-21T20:15:54.029Z,89.00
2019-04-21T20:18:15.312Z,89.30
2019-04-21T20:20:35.227Z,89.00
2019-04-21T20:23:13.202Z,88.70
2019-04-21T20:25:45.702Z,88.50
2019-04-21T20:28:21.177Z,88.70
2019-04-21T20:31:03.602Z,88.50
2019-04-21T20:33:50.527Z,88.80
2019-04-21T20:36:12.321Z,88.40
2019-04-21T20:38:31.324Z,88.10
2019-04-21T20:41:03.458Z,88.10
2019-04-21T20:43:47.328Z,88.10
2019-04-21T20:46:13.684Z,88.10
2019-04-21T20:48:48.060Z,88.00
2019-04-21T20:51:38.941Z,88.10
2019-04-21T20:54:08.614Z,88.50
2019-04-21T20:56:45.324Z,88.50
2019-04-21T20:59:16.305Z,88.40
2019-04-21T21:01:49.507Z,88.70
2019-04-21T21:04:17.470Z,89.10
2019-04-21T21:06:52.568Z,88.90
2019-04-21T21:09:23.054Z,89.10
2019-04-21T21:12:11.450Z,89.10
2019-04-21T21:14:30.886Z,89.10
2019-04-21T21:17:06.509Z,89.20
2019-04-21T21:19:40.113Z,89.30
2019-04-21T21:21:59.151Z,89.10
2019-04-21T21:24:49.030Z,89.00
2019-04-21T21:27:14.195Z,89.10
2019-04-21T21:29:45.339Z,89.20
2019-04-21T21:32:29.164Z,89.40
2019-04-21T21:34:49.705Z,89.80
2019-04-21T21:39:56.909Z,89.80
2019-04-21T21:42:11.837Z,89.80
2019-04-21T21:44:50.445Z,89.70
2019-04-21T21:47:28.018Z,89.70
2019-04-21T21:49:57.711Z,89.90
2019-04-21T21:52:35.397Z,89.90
2019-04-21T21:54:51.892Z,89.80
2019-04-21T21:57:24.487Z,90.00
2019-04-21T22:00:17.121Z,90.00
2019-04-21T22:02:51.311Z,89.80
2019-04-21T22:05:25.470Z,90.00
2019-04-21T22:07:54.335Z,89.70
2019-04-21T22:10:25.451Z,89.80
2019-04-21T22:13:19.799Z,89.70
2019-04-21T22:15:56.467Z,89.50
2019-04-21T22:18:39.214Z,89.10
2019-04-21T22:21:09.062Z,89.20
2019-04-21T22:23:36.774Z,89.10
2019-04-21T22:25:57.653Z,89.10
2019-04-21T22:28:29.556Z,89.20
2019-04-21T22:31:01.057Z,88.90
2019-04-21T22:33:38.959Z,89.00
2019-04-21T22:36:18.515Z,89.20
2019-04-21T22:38:50.937Z,89.20
2019-04-21T22:41:19.011Z,89.10
2019-04-21T22:43:44.386Z,89.20
2019-04-21T22:46:15.390Z,89.70
2019-04-21T22:48:55.895Z,89.70
2019-04-21T22:51:42.973Z,89.70
2019-04-21T22:54:13.960Z,89.60
2019-04-21T22:56:53.998Z,89.70
2019-04-21T22:59:18.647Z,89.80
2019-04-21T23:01:49.917Z,89.90
2019-04-21T23:04:19.067Z,90.00
2019-04-21T23:06:56.740Z,90.00
2019-04-21T23:09:22.549Z,90.10
2019-04-21T23:11:56.082Z,90.10
2019-04-21T23:14:25.871Z,90.00
2019-04-21T23:17:14.871Z,90.30
2019-04-21T23:19:42.629Z,90.20
2019-04-21T23:22:16.215Z,90.30
2019-04-21T23:24:51.611Z,90.30
2019-04-21T23:27:15.504Z,90.40
2019-04-21T23:30:11.051Z,90.50
2019-04-21T23:32:23.558Z,90.40
2019-04-21T23:34:44.191Z,90.40
2019-04-21T23:37:20.253Z,90.40
2019-04-21T23:39:59.238Z,90.20
2019-04-21T23:42:31.126Z,90.20
2019-04-21T23:44:58.171Z,90.30
2019-04-21T23:47:42.082Z,90.40
2019-04-21T23:50:10.991Z,90.30
2019-04-21T23:52:35.329Z,90.20
2019-04-21T23:55:07.586Z,90.40
2019-04-21T23:57:43.098Z,90.10
